Time;durP1;ratioP1;P1;durP2;ratioP2;P2;SDS_P1;SDS_P2;PMS_P1;PMS_P2;Temp;Humidity;BMP_temperature;BMP_pressure;BME280_temperature;BME280_humidity;BME280_pressure;Samples;Min_cycle;Max_cycle;Signal;HPM_P1;HPM_P2
2023/07/24 00:01:18;;;;;;;;;;;;;;;19.73;42.77;100057.02;105270;1290;61940;-83
2023/07/24 00:04:04;;;;;;;;;;;;;;;19.69;42.83;100049.56;105189;1291;73737;-84
2023/07/24 00:06:50;;;;;;;;;;;;;;;19.66;42.98;100038.41;105219;1291;67486;-83
2023/07/24 00:09:36;;;;;;;;;;;;;;;19.60;43.09;100035.13;105128;1290;71282;-83
2023/07/24 00:12:22;;;;;;;;;;;;;;;19.46;43.18;100032.46;105249;1290;62072;-83
2023/07/24 00:15:09;;;;;;;;;;;;;;;19.34;43.24;100028.66;105217;1292;60178;-83
2023/07/24 00:17:55;;;;;;;;;;;;;;;19.28;43.44;100019.61;105213;1290;73991;-83
2023/07/24 00:20:41;;;;;;;;;;;;;;;19.24;43.53;100025.23;105162;1292;67204;-83
2023/07/24 00:23:27;;;;;;;;;;;;;;;19.22;43.68;100030.98;105173;1291;71217;-83
2023/07/24 00:26:13;;;;;;;;;;;;;;;19.21;43.72;100028.45;105178;1288;63546;-83
2023/07/24 00:29:00;;;;;;;;;;;;;;;19.17;43.73;100031.95;105168;1291;61971;-83
2023/07/24 00:31:46;;;;;;;;;;;;;;;19.11;43.84;100039.70;105265;1290;74262;-83
2023/07/24 00:34:32;;;;;;;;;;;;;;;19.01;43.94;100041.73;105234;1291;68778;-83
2023/07/24 00:37:18;;;;;;;;;;;;;;;18.93;44.10;100040.77;105106;1290;75350;-83
2023/07/24 00:40:05;;;;;;;;;;;;;;;18.92;44.09;100037.36;105081;1291;61973;-83
2023/07/24 00:42:52;;;;;;;;;;;;;;;18.85;44.14;100037.21;105121;1291;62053;-83
2023/07/24 00:45:38;;;;;;;;;;;;;;;18.78;44.33;100032.91;105168;1291;75009;-83
2023/07/24 00:48:24;;;;;;;;;;;;;;;18.72;44.37;100031.77;105178;1294;70199;-83
2023/07/24 00:51:10;;;;;;;;;;;;;;;18.69;44.52;100029.46;105128;1291;71418;-83
2023/07/24 00:54:01;;;;;;;;;;;;;;;18.66;44.55;100022.83;105141;1290;62075;-83
2023/07/24 00:56:47;;;;;;;;;;;;;;;18.59;44.66;100020.27;105244;1291;60049;-83
2023/07/24 00:59:33;;;;;;;;;;;;;;;18.51;44.78;100018.46;105170;1291;74004;-83
2023/07/24 01:02:20;;;;;;;;;;;;;;;18.42;44.88;100018.78;105199;1290;67206;-83
2023/07/24 01:05:07;;;;;;;;;;;;;;;18.37;45.03;100020.67;105196;1291;72379;-83
2023/07/24 01:07:53;;;;;;;;;;;;;;;18.34;45.11;100018.77;105128;1290;60799;-83
2023/07/24 01:10:39;;;;;;;;;;;;;;;18.23;45.20;100011.54;105172;1290;60112;-83
2023/07/24 01:13:28;;;;;;;;;;;;;;;18.14;45.27;100014.00;105144;1294;74036;-83
2023/07/24 01:16:18;;;;;;;;;;;;;;;18.10;45.46;100018.22;105118;1288;68641;-83
2023/07/24 01:19:09;;;;;;;;;;;;;;;18.09;45.51;100014.77;105240;1293;74469;-83
2023/07/24 01:22:03;;;;;;;;;;;;;;;18.02;45.69;100011.16;105125;1295;62030;-83
2023/07/24 01:25:19;;;;;;;;;;;;;;;18.04;45.85;100009.84;105179;1290;63794;-83
2023/07/24 01:28:08;;;;;;;;;;;;;;;18.09;45.88;100006.92;104595;1298;74112;-83
2023/07/24 01:30:55;;;;;;;;;;;;;;;18.10;45.90;100008.27;79008;1302;5004828;-83
2023/07/24 01:33:41;;;;;;;;;;;;;;;18.08;46.07;100006.82;104474;1297;62047;-83
2023/07/24 01:36:27;;;;;;;;;;;;;;;18.09;46.24;100012.90;104512;1298;60037;-83
2023/07/24 01:39:14;;;;;;;;;;;;;;;18.11;46.30;100011.22;104595;1297;74216;-83
2023/07/24 01:42:01;;;;;;;;;;;;;;;18.10;46.42;100009.48;104630;1297;67405;-83
2023/07/24 01:44:51;;;;;;;;;;;;;;;18.13;46.55;100006.88;104658;1297;71427;-83
2023/07/24 01:47:38;;;;;;;;;;;;;;;18.17;46.63;100001.92;104708;1297;62144;-83
2023/07/24 01:50:24;;;;;;;;;;;;;;;18.22;46.56;99997.95;104594;1297;62092;-83
2023/07/24 01:53:10;;;;;;;;;;;;;;;18.26;46.66;100001.25;104661;1297;76037;-83
2023/07/24 01:55:58;;;;;;;;;;;;;;;18.30;46.66;99998.20;104604;1297;67141;-83
2023/07/24 01:58:44;;;;;;;;;;;;;;;18.32;46.74;99998.23;104580;1297;71176;-83
2023/07/24 02:01:30;;;;;;;;;;;;;;;18.35;46.83;99995.65;104614;1297;61825;-83
2023/07/24 02:04:16;;;;;;;;;;;;;;;18.40;46.85;99991.67;104911;1291;62097;-83
2023/07/24 02:07:03;;;;;;;;;;;;;;;18.43;46.84;99993.44;105183;1289;73209;-83
2023/07/24 02:09:49;;;;;;;;;;;;;;;18.47;46.94;99992.67;105166;1295;66358;-83
2023/07/24 02:12:35;;;;;;;;;;;;;;;18.50;47.02;99990.26;105230;1292;72012;-83
2023/07/24 02:15:21;;;;;;;;;;;;;;;18.51;47.09;99990.15;105261;1290;62050;-83
2023/07/24 02:18:07;;;;;;;;;;;;;;;18.53;47.23;99993.55;105317;1291;62073;-83
2023/07/24 02:20:53;;;;;;;;;;;;;;;18.56;47.25;99993.38;105245;1290;75633;-83
2023/07/24 02:23:39;;;;;;;;;;;;;;;18.59;47.25;99995.13;105203;1290;66190;-83
2023/07/24 02:26:25;;;;;;;;;;;;;;;18.61;47.35;99998.00;105207;1294;71972;-83
2023/07/24 02:29:11;;;;;;;;;;;;;;;18.63;47.37;99996.85;105011;1292;62093;-83
2023/07/24 02:31:58;;;;;;;;;;;;;;;18.64;47.33;99994.33;105220;1291;61912;-83
2023/07/24 02:34:44;;;;;;;;;;;;;;;18.65;47.42;99985.71;105141;1295;74091;-83
2023/07/24 02:37:30;;;;;;;;;;;;;;;18.65;47.41;99989.19;105235;1293;67341;-83
2023/07/24 02:40:16;;;;;;;;;;;;;;;18.66;47.60;99983.54;105106;1294;73488;-83
2023/07/24 02:43:02;;;;;;;;;;;;;;;18.67;47.64;99979.69;105139;1290;61935;-83
2023/07/24 02:45:49;;;;;;;;;;;;;;;18.67;47.71;99977.38;105226;1291;61925;-83
2023/07/24 02:48:35;;;;;;;;;;;;;;;18.70;47.83;99979.30;105118;1294;74285;-83
2023/07/24 02:51:21;;;;;;;;;;;;;;;18.73;47.72;99985.41;105177;1291;68172;-83
2023/07/24 02:54:07;;;;;;;;;;;;;;;18.75;47.80;99985.63;105145;1291;71379;-83
2023/07/24 02:56:53;;;;;;;;;;;;;;;18.74;47.85;99984.10;105190;1291;62815;-83
2023/07/24 02:59:39;;;;;;;;;;;;;;;18.74;47.97;99982.85;105158;1292;62103;-83
2023/07/24 03:02:25;;;;;;;;;;;;;;;18.78;47.96;99975.67;105155;1291;76818;-83
2023/07/24 03:05:11;;;;;;;;;;;;;;;18.81;48.02;99970.75;105123;1289;67177;-83
2023/07/24 03:07:57;;;;;;;;;;;;;;;18.83;48.06;99971.82;105220;1292;72274;-83
2023/07/24 03:10:43;;;;;;;;;;;;;;;18.86;48.02;99977.98;105194;1291;62181;-83
2023/07/24 03:13:30;;;;;;;;;;;;;;;18.87;48.17;99976.89;105208;1290;60558;-83
2023/07/24 03:16:20;;;;;;;;;;;;;;;18.87;48.15;99974.40;105134;1291;73868;-83
2023/07/24 03:19:07;;;;;;;;;;;;;;;18.85;48.26;99970.66;105062;1291;67299;-83
2023/07/24 03:21:53;;;;;;;;;;;;;;;18.88;48.23;99971.23;105189;1291;71217;-83
2023/07/24 03:24:39;;;;;;;;;;;;;;;18.90;48.42;99972.33;105206;1294;61990;-83
2023/07/24 03:27:25;;;;;;;;;;;;;;;18.92;48.35;99968.53;105177;1291;61934;-83
2023/07/24 03:30:11;;;;;;;;;;;;;;;18.95;48.41;99964.34;105162;1292;74005;-84
2023/07/24 03:32:57;;;;;;;;;;;;;;;18.98;48.51;99961.88;105148;1290;67441;-83
2023/07/24 03:35:43;;;;;;;;;;;;;;;18.94;48.50;99963.53;105113;1289;71287;-83
2023/07/24 03:38:29;;;;;;;;;;;;;;;18.93;48.58;99954.84;105106;1295;62117;-83
2023/07/24 03:41:15;;;;;;;;;;;;;;;18.97;48.88;99949.88;105149;1290;61804;-83
2023/07/24 03:44:01;;;;;;;;;;;;;;;18.96;48.82;99951.70;105215;1292;76882;-83
2023/07/24 03:46:47;;;;;;;;;;;;;;;18.97;48.97;99946.90;105166;1293;67700;-83
2023/07/24 03:49:33;;;;;;;;;;;;;;;19.01;48.86;99947.85;105185;1290;70269;-83
2023/07/24 03:52:19;;;;;;;;;;;;;;;19.05;49.08;99947.65;105182;1295;61783;-83
2023/07/24 03:55:07;;;;;;;;;;;;;;;19.06;49.18;99943.73;105138;1294;62910;-83
2023/07/24 03:57:53;;;;;;;;;;;;;;;19.07;49.21;99941.75;105136;1295;74551;-83
2023/07/24 04:00:39;;;;;;;;;;;;;;;19.08;49.37;99942.38;105212;1289;67318;-83
2023/07/24 04:03:25;;;;;;;;;;;;;;;19.09;49.31;99939.15;105244;1293;71396;-83
2023/07/24 04:06:11;;;;;;;;;;;;;;;19.10;49.40;99938.56;105137;1290;61975;-83
2023/07/24 04:08:57;;;;;;;;;;;;;;;19.12;49.56;99941.45;105188;1289;60507;-83
2023/07/24 04:11:44;;;;;;;;;;;;;;;19.13;49.57;99936.09;105243;1289;78096;-83
2023/07/24 04:14:30;;;;;;;;;;;;;;;19.14;49.66;99934.13;105169;1292;68552;-83
2023/07/24 04:17:16;;;;;;;;;;;;;;;19.15;49.69;99932.32;105119;1290;72140;-83
2023/07/24 04:20:03;;;;;;;;;;;;;;;19.17;49.77;99930.09;105175;1290;62060;-83
2023/07/24 04:22:49;;;;;;;;;;;;;;;19.19;49.72;99930.70;105167;1289;61920;-83
2023/07/24 04:25:35;;;;;;;;;;;;;;;19.20;49.68;99935.17;105266;1290;74086;-83
2023/07/24 04:28:21;;;;;;;;;;;;;;;19.21;49.66;99936.38;105146;1294;67217;-83
2023/07/24 04:31:07;;;;;;;;;;;;;;;19.22;49.75;99943.46;105125;1295;72517;-83
2023/07/24 04:33:53;;;;;;;;;;;;;;;19.23;49.73;99942.52;105098;1289;62072;-83
2023/07/24 04:36:39;;;;;;;;;;;;;;;19.24;49.73;99941.16;105164;1289;61984;-83
2023/07/24 04:39:25;;;;;;;;;;;;;;;19.26;49.78;99938.58;105126;1294;74265;-83
2023/07/24 04:42:11;;;;;;;;;;;;;;;19.29;49.77;99943.50;105023;1289;67436;-83
2023/07/24 04:44:57;;;;;;;;;;;;;;;19.32;49.86;99955.01;105163;1289;71263;-83
2023/07/24 04:47:43;;;;;;;;;;;;;;;19.35;50.05;99950.96;105197;1289;62667;-82
2023/07/24 04:50:30;;;;;;;;;;;;;;;19.39;50.21;99955.12;105183;1289;59431;-83
2023/07/24 04:53:16;;;;;;;;;;;;;;;19.42;50.34;99961.38;105121;1289;75608;-83
2023/07/24 04:56:02;;;;;;;;;;;;;;;19.41;50.49;99977.66;105159;1289;69541;-83
2023/07/24 04:58:48;;;;;;;;;;;;;;;19.43;50.63;99989.46;105234;1294;72493;-83
2023/07/24 05:01:34;;;;;;;;;;;;;;;19.43;50.72;99971.79;105151;1290;61800;-83
2023/07/24 05:04:20;;;;;;;;;;;;;;;19.38;50.83;99967.19;105126;1289;62081;-83
2023/07/24 05:07:06;;;;;;;;;;;;;;;19.32;51.19;99978.27;105116;1294;73441;-83
2023/07/24 05:09:52;;;;;;;;;;;;;;;19.32;51.42;99975.13;105234;1289;67946;-83
2023/07/24 05:12:40;;;;;;;;;;;;;;;19.18;51.49;99962.03;105198;1292;71369;-84
2023/07/24 05:15:26;;;;;;;;;;;;;;;19.08;51.78;99962.09;105159;1290;62067;-83
2023/07/24 05:18:12;;;;;;;;;;;;;;;19.08;51.94;99961.05;105165;1289;62104;-83
2023/07/24 05:20:58;;;;;;;;;;;;;;;19.10;52.13;99959.54;105254;1290;75905;-83
2023/07/24 05:23:44;;;;;;;;;;;;;;;19.12;52.27;99960.51;105316;1290;66177;-83
2023/07/24 05:26:30;;;;;;;;;;;;;;;19.09;52.44;99955.44;105287;1289;73267;-83
2023/07/24 05:29:16;;;;;;;;;;;;;;;19.03;52.61;99952.63;105172;1292;60031;-84
2023/07/24 05:32:02;;;;;;;;;;;;;;;19.01;52.65;99948.23;105353;1289;62088;-83
2023/07/24 05:34:48;;;;;;;;;;;;;;;18.94;52.87;99948.48;105252;1293;75816;-83
2023/07/24 05:37:34;;;;;;;;;;;;;;;18.95;53.13;99946.83;105341;1289;67179;-83
2023/07/24 05:40:20;;;;;;;;;;;;;;;18.97;53.02;99934.17;105244;1290;73649;-83
2023/07/24 05:43:07;;;;;;;;;;;;;;;18.99;53.30;99933.66;105341;1289;60087;-83
2023/07/24 05:45:54;;;;;;;;;;;;;;;18.97;53.48;99927.34;105382;1290;59811;-83
2023/07/24 05:48:40;;;;;;;;;;;;;;;18.99;53.49;99926.70;105274;1292;75331;-83
2023/07/24 05:51:26;;;;;;;;;;;;;;;19.02;53.55;99924.20;105385;1294;70046;-84
2023/07/24 05:54:12;;;;;;;;;;;;;;;19.05;53.65;99920.17;105262;1294;71170;-83
2023/07/24 05:56:58;;;;;;;;;;;;;;;18.97;53.63;99911.94;105332;1290;59711;-83
2023/07/24 05:59:44;;;;;;;;;;;;;;;18.98;53.93;99910.33;105199;1291;61965;-83
2023/07/24 06:02:31;;;;;;;;;;;;;;;19.07;54.07;99905.06;105361;1292;73440;-83
2023/07/24 06:05:17;;;;;;;;;;;;;;;19.19;54.13;99898.92;105310;1289;66373;-83
2023/07/24 06:08:03;;;;;;;;;;;;;;;19.28;54.28;99897.94;105289;1293;70266;-83
2023/07/24 06:10:50;;;;;;;;;;;;;;;19.43;54.53;99896.83;105267;1291;62161;-83
2023/07/24 06:13:36;;;;;;;;;;;;;;;19.56;54.38;99892.84;105345;1291;60346;-84
2023/07/24 06:16:22;;;;;;;;;;;;;;;19.70;54.67;99898.05;105376;1291;75226;-83
2023/07/24 06:19:08;;;;;;;;;;;;;;;19.90;54.53;99893.73;105178;1290;67266;-83
2023/07/24 06:21:54;;;;;;;;;;;;;;;20.14;54.52;99890.71;105261;1290;71410;-83
2023/07/24 06:24:40;;;;;;;;;;;;;;;20.42;54.59;99883.90;105343;1290;60013;-84
2023/07/24 06:27:26;;;;;;;;;;;;;;;20.75;54.63;99880.09;105235;1294;60345;-84
2023/07/24 06:30:12;;;;;;;;;;;;;;;21.08;54.32;99874.00;105237;1289;74136;-83
2023/07/24 06:32:59;;;;;;;;;;;;;;;21.22;54.26;99870.45;105245;1290;67473;-84
2023/07/24 06:35:45;;;;;;;;;;;;;;;21.36;54.36;99869.38;105182;1291;72369;-83
2023/07/24 06:38:31;;;;;;;;;;;;;;;21.60;54.37;99869.89;105263;1292;60127;-84
2023/07/24 06:41:19;;;;;;;;;;;;;;;21.77;54.28;99865.66;105552;1294;60175;-84
2023/07/24 06:44:05;;;;;;;;;;;;;;;21.93;54.17;99865.70;105585;1291;74246;-84
2023/07/24 06:46:51;;;;;;;;;;;;;;;22.11;54.20;99865.02;105348;1289;68008;-83
2023/07/24 06:49:37;;;;;;;;;;;;;;;22.43;54.39;99860.42;105233;1289;71282;-84
2023/07/24 06:52:23;;;;;;;;;;;;;;;23.38;54.18;99862.70;105282;1291;61918;-84
2023/07/24 06:55:09;;;;;;;;;;;;;;;24.38;53.75;99854.71;105332;1291;61841;-84
2023/07/24 06:57:55;;;;;;;;;;;;;;;24.92;53.13;99850.02;105259;1291;74100;-83
2023/07/24 07:00:41;;;;;;;;;;;;;;;25.20;52.80;99849.98;105261;1290;67296;-84
2023/07/24 07:03:27;;;;;;;;;;;;;;;25.43;52.62;99849.39;105364;1289;71477;-83
2023/07/24 07:06:13;;;;;;;;;;;;;;;25.53;52.30;99846.08;105011;1291;337535;-83
2023/07/24 07:09:00;;;;;;;;;;;;;;;25.81;52.23;99846.08;105265;1294;62617;-90
2023/07/24 07:11:46;;;;;;;;;;;;;;;27.10;52.08;99848.29;105353;1291;73968;-85
2023/07/24 07:14:32;;;;;;;;;;;;;;;28.50;51.21;99845.52;105307;1289;67391;-85
2023/07/24 07:17:18;;;;;;;;;;;;;;;28.67;50.75;99846.39;105258;1288;71169;-84
2023/07/24 07:20:05;;;;;;;;;;;;;;;28.63;50.93;99840.30;105277;1289;61948;-85
2023/07/24 07:22:51;;;;;;;;;;;;;;;29.66;50.47;99842.45;105222;1289;60111;-84
2023/07/24 07:25:37;;;;;;;;;;;;;;;29.79;49.69;99841.73;105324;1291;74848;-85
2023/07/24 07:28:23;;;;;;;;;;;;;;;30.22;49.77;99845.99;105314;1290;67581;-85
2023/07/24 07:31:09;;;;;;;;;;;;;;;30.63;49.36;99843.33;105334;1291;71330;-84
2023/07/24 07:33:55;;;;;;;;;;;;;;;30.80;48.95;99839.52;105322;1289;60086;-85
2023/07/24 07:36:41;;;;;;;;;;;;;;;30.47;48.89;99834.60;105279;1291;61986;-84
2023/07/24 07:39:27;;;;;;;;;;;;;;;29.99;48.85;99831.52;105191;1290;74283;-85
2023/07/24 07:42:13;;;;;;;;;;;;;;;29.46;48.75;99832.66;105264;1291;69975;-85
2023/07/24 07:44:59;;;;;;;;;;;;;;;28.94;48.63;99833.11;105300;1291;71285;-85
2023/07/24 07:47:45;;;;;;;;;;;;;;;28.82;48.72;99830.83;105268;1289;61861;-85
2023/07/24 07:50:32;;;;;;;;;;;;;;;28.87;48.32;99826.64;105299;1294;61970;-85
2023/07/24 07:53:18;;;;;;;;;;;;;;;28.94;48.27;99826.42;105311;1291;76826;-85
2023/07/24 07:56:04;;;;;;;;;;;;;;;29.58;47.91;99821.17;105370;1289;67232;-85
2023/07/24 07:58:50;;;;;;;;;;;;;;;30.12;47.52;99817.87;105317;1289;74112;-86
2023/07/24 08:01:39;;;;;;;;;;;;;;;31.12;47.25;99816.88;105315;1289;62026;-86
2023/07/24 08:04:25;;;;;;;;;;;;;;;33.77;46.53;99819.25;101581;1290;5002841;-86
2023/07/24 08:07:11;;;;;;;;;;;;;;;34.39;45.53;99822.83;105248;1289;75188;-86
2023/07/24 08:09:57;;;;;;;;;;;;;;;36.24;45.22;99823.89;105326;1290;67316;-86
2023/07/24 08:12:43;;;;;;;;;;;;;;;38.39;44.51;99819.46;105359;1293;73137;-86
2023/07/24 08:15:33;;;;;;;;;;;;;;;40.19;43.99;99814.03;105270;1290;61787;-86
2023/07/24 08:18:19;;;;;;;;;;;;;;;41.41;43.30;99810.00;105273;1290;62669;-87
2023/07/24 08:21:05;;;;;;;;;;;;;;;41.52;42.83;99807.54;105275;1291;74139;-86
2023/07/24 08:23:51;;;;;;;;;;;;;;;42.72;42.55;99810.80;105266;1289;67323;-87
2023/07/24 08:26:38;;;;;;;;;;;;;;;43.92;41.51;99811.55;105267;1289;73053;-86
2023/07/24 08:29:24;;;;;;;;;;;;;;;44.00;40.90;99807.17;105281;1290;60024;-86
2023/07/24 08:32:10;;;;;;;;;;;;;;;43.42;40.22;99798.36;105252;1290;60218;-86
2023/07/24 08:34:57;;;;;;;;;;;;;;;40.93;39.92;99791.76;105311;1289;73990;-85
2023/07/24 08:37:44;;;;;;;;;;;;;;;38.92;39.96;99791.94;105309;1289;68991;-86
2023/07/24 08:40:30;;;;;;;;;;;;;;;39.91;39.67;99787.33;105236;1289;71388;-86
2023/07/24 08:43:16;;;;;;;;;;;;;;;39.77;38.09;99781.19;105338;1290;60260;-86
2023/07/24 08:46:04;;;;;;;;;;;;;;;39.47;38.33;99783.67;105291;1289;60200;-86
2023/07/24 08:48:52;;;;;;;;;;;;;;;41.36;37.57;99783.67;105250;1290;75177;-86
2023/07/24 08:51:39;;;;;;;;;;;;;;;42.07;36.31;99789.68;105244;1290;67393;-85
2023/07/24 08:54:26;;;;;;;;;;;;;;;39.91;36.13;99790.17;105359;1290;71323;-86
2023/07/24 08:57:13;;;;;;;;;;;;;;;38.00;36.03;99789.44;105296;1290;61947;-86
2023/07/24 09:00:04;;;;;;;;;;;;;;;36.57;35.73;99791.14;105230;1291;61960;-87
2023/07/24 09:02:50;;;;;;;;;;;;;;;35.18;35.79;99793.02;105378;1289;74320;-85
2023/07/24 09:05:36;;;;;;;;;;;;;;;34.11;35.61;99798.73;105301;1291;67360;-85
2023/07/24 09:08:27;;;;;;;;;;;;;;;33.22;35.52;99792.45;105282;1291;71388;-86
2023/07/24 09:10:53;;;;;;;;;;;;;;;32.67;35.73;99788.73;105413;1290;60192;-86
2023/07/24 09:13:36;;;;;;;;;;;;;;;32.34;35.49;99781.73;105310;1288;60397;-87
2023/07/24 09:16:23;;;;;;;;;;;;;;;31.89;35.26;99772.40;105261;1290;75307;-87
2023/07/24 09:19:20;;;;;;;;;;;;;;;31.33;35.16;99775.22;105273;1293;68083;-88
2023/07/24 09:22:29;;;;;;;;;;;;;;;30.96;35.37;99773.25;105357;1289;71209;-89
2023/07/24 09:25:51;;;;;;;;;;;;;;;30.75;35.43;99765.73;105135;1296;62030;-87
2023/07/24 09:28:57;;;;;;;;;;;;;;;30.59;35.37;99759.75;104829;1302;60500;-87
2023/07/24 09:31:43;;;;;;;;;;;;;;;30.27;35.14;99756.77;104617;1297;74236;-86
2023/07/24 09:34:51;;;;;;;;;;;;;;;29.94;35.28;99753.55;104792;1297;67134;-86
2023/07/24 09:37:58;;;;;;;;;;;;;;;29.72;35.50;99750.79;104776;1297;71992;-87
2023/07/24 09:41:03;;;;;;;;;;;;;;;29.52;35.59;99748.99;104809;1297;62249;-87
2023/07/24 09:43:57;;;;;;;;;;;;;;;29.29;35.44;99752.38;105648;1296;60001;-87
2023/07/24 09:46:44;;;;;;;;;;;;;;;29.09;35.71;99749.92;104775;1297;75212;-86
2023/07/24 09:49:54;;;;;;;;;;;;;;;28.94;35.69;99737.42;104733;1297;67249;-85
2023/07/24 09:53:20;;;;;;;;;;;;;;;28.92;36.00;99732.93;104751;1297;71367;-85
2023/07/24 09:56:24;;;;;;;;;;;;;;;28.86;36.01;99728.59;104767;1301;60660;-85
2023/07/24 09:59:11;;;;;;;;;;;;;;;28.78;36.10;99720.52;104893;1296;62397;-86
2023/07/24 10:02:37;;;;;;;;;;;;;;;28.74;36.27;99717.92;104938;1289;75385;-85
2023/07/24 10:05:09;;;;;;;;;;;;;;;28.69;36.26;99718.27;105395;1290;67384;-86
2023/07/24 10:07:35;;;;;;;;;;;;;;;28.59;36.30;99719.96;105981;1289;72781;-86
2023/07/24 10:10:22;;;;;;;;;;;;;;;28.51;36.44;99725.80;105987;1289;60045;-86
2023/07/24 10:13:28;;;;;;;;;;;;;;;28.48;36.46;99720.90;105221;1289;60354;-86
2023/07/24 10:16:13;;;;;;;;;;;;;;;28.46;36.55;99719.53;105354;1290;74028;-86
2023/07/24 10:18:48;;;;;;;;;;;;;;;28.44;36.78;99719.29;105300;1289;67494;-85
2023/07/24 10:21:35;;;;;;;;;;;;;;;28.45;36.80;99728.03;105283;1289;71436;-85
2023/07/24 10:24:23;;;;;;;;;;;;;;;28.43;36.84;99724.47;105241;1290;60183;-86
2023/07/24 10:27:09;;;;;;;;;;;;;;;28.43;36.79;99721.25;105219;1290;60201;-86
2023/07/24 10:29:55;;;;;;;;;;;;;;;28.44;37.03;99721.02;105292;1291;74192;-86
2023/07/24 10:33:07;;;;;;;;;;;;;;;28.45;37.00;99713.77;105331;1289;68574;-87
2023/07/24 10:36:14;;;;;;;;;;;;;;;28.46;36.95;99719.16;105322;1290;71401;-86
2023/07/24 10:39:13;;;;;;;;;;;;;;;28.44;37.11;99710.85;105274;1290;60796;-86
2023/07/24 10:42:39;;;;;;;;;;;;;;;28.54;37.28;99723.35;105243;1294;61704;-86
2023/07/24 10:46:08;;;;;;;;;;;;;;;28.63;37.26;99722.15;105286;1290;77870;-86
2023/07/24 10:49:11;;;;;;;;;;;;;;;28.71;37.13;99715.05;104531;1298;67439;-86
2023/07/24 10:51:58;;;;;;;;;;;;;;;28.77;37.17;99706.45;104532;1297;72716;-86
2023/07/24 10:55:04;;;;;;;;;;;;;;;28.84;37.30;99711.66;104693;1301;61966;-86
2023/07/24 10:58:12;;;;;;;;;;;;;;;28.83;37.09;99704.60;104673;1300;60227;-86
2023/07/24 11:01:19;;;;;;;;;;;;;;;28.87;37.24;99697.42;104485;1297;207539;-86
2023/07/24 11:04:36;;;;;;;;;;;;;;;28.92;37.24;99696.90;104699;1300;68040;-88
2023/07/24 11:07:42;;;;;;;;;;;;;;;28.96;37.20;99692.58;104689;1299;72848;-87
2023/07/24 11:10:30;;;;;;;;;;;;;;;28.96;37.23;99700.90;104728;1297;60122;-87
2023/07/24 11:13:41;;;;;;;;;;;;;;;28.91;37.21;99695.73;104313;1298;62171;-88
2023/07/24 11:16:45;;;;;;;;;;;;;;;28.96;37.33;99689.88;104602;1297;74235;-88
2023/07/24 11:19:52;;;;;;;;;;;;;;;28.98;37.25;99678.88;104678;1300;67492;-87
2023/07/24 11:22:58;;;;;;;;;;;;;;;28.97;37.23;99674.81;104663;1297;71218;-87
2023/07/24 11:25:46;;;;;;;;;;;;;;;29.06;37.25;99672.05;104901;1291;63937;-87
2023/07/24 11:28:52;;;;;;;;;;;;;;;29.12;37.17;99677.16;105073;1289;60084;-88
2023/07/24 11:31:56;;;;;;;;;;;;;;;29.23;37.29;99680.14;105568;1289;75227;-89
2023/07/24 11:34:44;;;;;;;;;;;;;;;29.27;37.20;99674.80;105282;1291;67626;-87
2023/07/24 11:37:32;;;;;;;;;;;;;;;29.25;37.26;99668.20;105417;1291;71267;-87
2023/07/24 11:40:19;;;;;;;;;;;;;;;29.26;37.20;99659.84;105226;1297;61969;-87
2023/07/24 11:43:26;;;;;;;;;;;;;;;29.24;37.18;99655.02;105434;1291;59895;-87
2023/07/24 11:46:32;;;;;;;;;;;;;;;29.26;37.14;99651.48;105391;1289;74616;-87
2023/07/24 11:49:19;;;;;;;;;;;;;;;29.25;36.94;99645.83;105380;1289;67237;-87
2023/07/24 11:52:06;;;;;;;;;;;;;;;29.28;37.09;99635.01;105319;1289;74035;-88
2023/07/24 11:55:03;;;;;;;;;;;;;;;29.32;37.04;99635.67;105410;1290;62069;-88
2023/07/24 11:58:16;;;;;;;;;;;;;;;29.27;36.80;99626.52;105412;1294;62043;-89
2023/07/24 12:01:22;;;;;;;;;;;;;;;29.28;37.04;99626.39;105406;1290;75339;-89
2023/07/24 12:04:48;;;;;;;;;;;;;;;29.33;37.02;99626.31;105405;1292;68631;-89
2023/07/24 12:07:45;;;;;;;;;;;;;;;29.32;36.90;99607.98;105468;1289;73260;-88
2023/07/24 12:11:09;;;;;;;;;;;;;;;29.25;36.81;99602.23;105470;1291;62044;-89
2023/07/24 12:14:35;;;;;;;;;;;;;;;29.23;36.82;99608.15;105442;1290;60651;-88
2023/07/24 12:17:44;;;;;;;;;;;;;;;29.30;36.79;99606.24;105833;1291;74273;-88
2023/07/24 12:21:10;;;;;;;;;;;;;;;29.46;36.90;99595.69;105265;1291;67653;-88
2023/07/24 12:23:57;;;;;;;;;;;;;;;29.53;36.79;99586.38;105298;1289;71104;-87
2023/07/24 12:27:02;;;;;;;;;;;;;;;29.52;36.53;99583.75;105343;1289;61837;-88
2023/07/24 12:30:09;;;;;;;;;;;;;;;29.52;36.68;99580.02;105951;1290;216659;-88
2023/07/24 12:33:35;;;;;;;;;;;;;;;29.56;36.68;99577.67;105509;1291;75203;-89
2023/07/24 12:36:24;;;;;;;;;;;;;;;29.53;36.48;99561.98;105445;1288;67608;-89
2023/07/24 12:39:50;;;;;;;;;;;;;;;29.46;36.37;99558.33;105390;1289;73214;-89
2023/07/24 12:43:16;;;;;;;;;;;;;;;29.39;36.41;99549.36;105385;1291;62115;-89
2023/07/24 12:46:06;;;;;;;;;;;;;;;29.38;36.44;99548.73;105423;1291;62147;-88
2023/07/24 12:49:32;;;;;;;;;;;;;;;29.35;36.34;99550.20;105381;1289;76175;-88
2023/07/24 12:52:42;;;;;;;;;;;;;;;29.35;36.26;99541.29;105530;1289;67397;-88
2023/07/24 12:55:38;;;;;;;;;;;;;;;29.42;36.26;99542.09;105420;1289;73051;-88
2023/07/24 12:58:48;;;;;;;;;;;;;;;29.52;36.38;99538.83;105285;1290;61968;-88
2023/07/24 13:01:35;;;;;;;;;;;;;;;29.56;36.14;99542.80;105634;1290;62022;-88
2023/07/24 13:04:41;;;;;;;;;;;;;;;29.50;36.20;99542.30;105289;1288;74172;-88
2023/07/24 13:07:36;;;;;;;;;;;;;;;29.50;36.35;99539.14;105353;1289;70598;-86
2023/07/24 13:10:42;;;;;;;;;;;;;;;29.61;36.35;99535.48;105338;1291;71997;-88
2023/07/24 13:14:08;;;;;;;;;;;;;;;29.62;36.01;99525.50;105344;1291;62021;-87
2023/07/24 13:17:14;;;;;;;;;;;;;;;29.61;36.16;99528.89;105392;1291;60900;-87
2023/07/24 13:20:20;;;;;;;;;;;;;;;29.68;36.06;99518.05;105170;1289;73959;-87
2023/07/24 13:23:16;;;;;;;;;;;;;;;29.72;35.91;99512.23;105444;1291;67922;-87
2023/07/24 13:26:03;;;;;;;;;;;;;;;29.66;36.04;99503.11;105405;1291;72053;-87
2023/07/24 13:31:52;;;;;;;;;;;;;;;29.59;35.97;99509.99;105629;1287;62117;-86
2023/07/24 13:34:38;;;;;;;;;;;;;;;29.63;35.91;99507.89;105530;1288;75634;-87
2023/07/24 13:37:24;;;;;;;;;;;;;;;29.64;35.82;99496.95;105384;1288;67114;-86
2023/07/24 13:40:10;;;;;;;;;;;;;;;29.63;35.55;99494.08;105110;1288;71288;-86
2023/07/24 13:43:17;;;;;;;;;;;;;;;29.61;35.72;99488.94;105477;1288;63095;-87
2023/07/24 13:46:25;;;;;;;;;;;;;;;29.59;35.52;99480.09;105202;1288;61948;-86
2023/07/24 13:49:31;;;;;;;;;;;;;;;29.61;35.58;99472.78;105353;1288;74142;-87
2023/07/24 13:52:38;;;;;;;;;;;;;;;29.60;35.29;99468.63;105285;1288;67214;-86
2023/07/24 13:55:44;;;;;;;;;;;;;;;29.61;35.33;99461.84;105336;1289;71264;-87
2023/07/24 13:59:10;;;;;;;;;;;;;;;29.63;35.21;99458.67;105336;1290;62022;-87
2023/07/24 14:02:20;;;;;;;;;;;;;;;29.71;35.13;99464.34;105419;1288;62817;-86
2023/07/24 14:05:28;;;;;;;;;;;;;;;29.71;34.87;99449.89;105443;1289;75338;-86
2023/07/24 14:08:30;;;;;;;;;;;;;;;29.68;34.83;99446.29;105440;1288;68419;-87
2023/07/24 14:11:36;;;;;;;;;;;;;;;29.68;35.06;99439.31;105079;1288;72658;-86
2023/07/24 14:14:23;;;;;;;;;;;;;;;29.71;34.90;99430.98;105611;1288;61951;-86
2023/07/24 14:17:09;;;;;;;;;;;;;;;29.73;34.83;99417.02;105339;1289;60681;-86
2023/07/24 14:20:16;;;;;;;;;;;;;;;29.74;34.94;99419.82;105208;1288;76195;-88
2023/07/24 14:23:21;;;;;;;;;;;;;;;29.83;34.84;99419.33;105333;1288;67685;-87
2023/07/24 14:26:27;;;;;;;;;;;;;;;29.90;34.66;99416.32;105310;1288;72856;-88
2023/07/24 14:29:54;;;;;;;;;;;;;;;29.87;34.64;99410.85;105391;1288;62086;-90
2023/07/24 14:33:01;;;;;;;;;;;;;;;29.81;34.43;99408.28;105448;1288;60194;-89
2023/07/24 14:36:33;;;;;;;;;;;;;;;29.78;34.33;99403.70;105418;1288;74764;-88
2023/07/24 14:39:52;;;;;;;;;;;;;;;29.74;34.34;99392.31;106204;1288;68246;-89
2023/07/24 14:43:03;;;;;;;;;;;;;;;29.74;34.14;99391.74;105360;1288;71078;-87
2023/07/24 14:46:08;;;;;;;;;;;;;;;29.71;34.15;99389.39;105380;1288;62090;-87